Time;durP1;ratioP1;P1;durP2;ratioP2;P2;SDS_P1;SDS_P2;PMS_P1;PMS_P2;Temp;Humidity;BMP_temperature;BMP_pressure;BME280_temperature;BME280_humidity;BME280_pressure;Samples;Min_cycle;Max_cycle;Signal;HPM_P1;HPM_P2
2024/03/26 00:00:33;;;;;;;0.10;0.10;;;;;;;8.87;59.70;99902.59;5073684;28;20508;-79
2024/03/26 00:03:00;;;;;;;0.10;0.10;;;;;;;8.80;59.38;99893.97;5074662;28;20123;-78
2024/03/26 00:05:28;;;;;;;0.10;0.10;;;;;;;8.80;59.11;99893.09;5077990;28;20055;-78
2024/03/26 00:07:56;;;;;;;0.10;0.10;;;;;;;8.79;59.42;99891.41;5074184;28;20051;-79
2024/03/26 00:10:27;;;;;;;0.10;0.10;;;;;;;8.75;59.50;99887.97;5083345;28;20036;-78
2024/03/26 00:12:59;;;;;;;0.30;0.30;;;;;;;8.78;59.27;99884.38;5076451;28;20040;-78
2024/03/26 00:15:26;;;;;;;;;;;;;;;8.84;58.74;99884.19;5080735;28;20032;-80
2024/03/26 00:17:57;;;;;;;0.10;0.10;;;;;;;8.65;59.79;99873.25;5087119;28;19915;-78
2024/03/26 00:20:24;;;;;;;0.10;0.10;;;;;;;8.63;59.41;99875.09;5079346;28;20032;-77
2024/03/26 00:22:56;;;;;;;0.10;0.10;;;;;;;8.63;58.93;99873.31;5072235;28;20116;-78
2024/03/26 00:25:23;;;;;;;0.10;0.10;;;;;;;8.53;59.67;99869.19;5073160;28;20078;-80
2024/03/26 00:27:52;;;;;;;0.10;0.10;;;;;;;8.53;59.64;99864.78;5074373;28;20134;-79
2024/03/26 00:30:22;;;;;;;0.10;0.10;;;;;;;8.49;59.12;99868.41;5075511;28;20036;-80
2024/03/26 00:32:49;;;;;;;0.10;0.10;;;;;;;8.47;59.26;99867.56;5065302;28;20037;-78
2024/03/26 00:35:24;;;;;;;0.10;0.10;;;;;;;8.51;59.54;99855.16;5075293;28;20067;-80
2024/03/26 00:37:58;;;;;;;0.10;0.10;;;;;;;8.47;59.59;99845.59;5080474;28;20127;-78
2024/03/26 00:40:25;;;;;;;0.10;0.10;;;;;;;8.46;59.49;99843.84;5075036;28;20036;-79
2024/03/26 00:42:53;;;;;;;0.10;0.10;;;;;;;8.45;59.27;99848.25;5071606;28;20032;-78
2024/03/26 00:45:33;;;;;;;0.10;0.10;;;;;;;8.47;59.56;99845.59;5071895;28;20388;-78
2024/03/26 00:48:06;;;;;;;0.10;0.10;;;;;;;8.43;59.70;99840.38;5070146;28;20024;-78
2024/03/26 00:50:43;;;;;;;0.15;0.15;;;;;;;8.44;59.80;99833.31;5072030;28;20043;-78
2024/03/26 00:56:34;;;;;;;0.20;0.20;;;;;;;8.35;59.75;99815.09;5072002;28;20044;-78
2024/03/26 00:59:14;;;;;;;0.10;0.10;;;;;;;8.34;59.65;99808.97;5072110;28;20025;-78
2024/03/26 01:01:41;;;;;;;0.10;0.10;;;;;;;8.31;59.60;99809.06;5070691;28;20044;-79
2024/03/26 01:04:10;;;;;;;0.10;0.10;;;;;;;8.30;59.90;99809.06;5070872;28;20513;-79
2024/03/26 01:06:40;;;;;;;0.10;0.10;;;;;;;8.30;60.23;99796.75;5071671;28;20171;-80
2024/03/26 01:09:09;;;;;;;0.10;0.10;;;;;;;8.31;59.96;99800.25;5072355;28;20025;-78
2024/03/26 01:11:47;;;;;;;0.63;0.63;;;;;;;8.30;60.68;99802.03;5079994;28;20029;-78
2024/03/26 01:14:16;;;;;;;0.10;0.10;;;;;;;8.27;60.38;99791.56;5076454;28;20033;-78
2024/03/26 01:16:45;;;;;;;0.10;0.10;;;;;;;8.24;59.98;99786.38;5072536;28;20048;-79
2024/03/26 01:19:13;;;;;;;0.10;0.10;;;;;;;8.27;60.30;99783.63;5071758;28;20082;-79
2024/03/26 01:21:41;;;;;;;0.10;0.10;;;;;;;8.25;60.66;99782.84;5071841;28;20064;-78
2024/03/26 01:24:10;;;;;;;0.17;0.17;;;;;;;8.25;60.53;99781.03;5071986;28;20142;-78
2024/03/26 01:26:39;;;;;;;0.10;0.10;;;;;;;8.25;59.98;99777.56;5072216;28;20028;-77
2024/03/26 01:29:08;;;;;;;0.10;0.10;;;;;;;8.21;60.61;99781.16;5071638;28;20040;-77
2024/03/26 01:31:35;;;;;;;1.58;1.48;;;;;;;8.19;60.16;99767.16;5072023;28;20041;-78
2024/03/26 01:34:05;;;;;;;0.10;0.10;;;;;;;8.19;60.02;99769.81;5071973;28;20060;-77
2024/03/26 01:36:35;;;;;;;0.73;0.73;;;;;;;8.19;60.37;99772.44;5072785;28;20036;-78
2024/03/26 01:39:07;;;;;;;0.10;0.10;;;;;;;8.18;60.55;99766.28;5073561;28;20025;-79
2024/03/26 01:41:34;;;;;;;0.10;0.10;;;;;;;8.16;60.29;99761.97;5076164;28;20044;-78
2024/03/26 01:44:02;;;;;;;0.10;0.10;;;;;;;8.13;60.21;99756.78;5077061;28;20040;-78
2024/03/26 01:46:35;;;;;;;0.03;0.03;;;;;;;8.15;59.75;99749.66;5077772;28;20033;-79
2024/03/26 01:49:06;;;;;;;0.17;0.17;;;;;;;8.06;60.48;99743.75;5079824;28;20029;-78
2024/03/26 01:51:40;;;;;;;0.10;0.10;;;;;;;8.05;60.54;99742.03;5085296;28;20077;-78
2024/03/26 01:54:08;;;;;;;0.10;0.10;;;;;;;7.99;60.64;99734.28;5088900;28;20040;-78
2024/03/26 01:56:36;;;;;;;0.10;0.10;;;;;;;7.97;60.12;99727.31;5088394;28;20021;-79
2024/03/26 01:59:07;;;;;;;0.10;0.10;;;;;;;7.94;60.36;99734.38;5082456;28;20033;-78
2024/03/26 02:01:37;;;;;;;0.35;0.35;;;;;;;7.91;60.83;99728.31;5087146;28;20032;-78
2024/03/26 02:04:07;;;;;;;0.10;0.10;;;;;;;7.88;60.99;99724.00;5086915;28;20092;-77
2024/03/26 02:06:35;;;;;;;0.10;0.10;;;;;;;7.84;60.86;99729.38;5082030;28;20028;-77
2024/03/26 02:09:03;;;;;;;0.10;0.10;;;;;;;7.81;60.47;99729.50;5083535;28;20028;-79
2024/03/26 02:11:30;;;;;;;0.17;0.17;;;;;;;7.75;60.54;99718.19;5084683;28;20028;-79
2024/03/26 02:13:58;;;;;;;0.28;0.28;;;;;;;7.72;61.35;99718.25;5081581;28;20036;-79
2024/03/26 02:16:26;;;;;;;0.10;0.10;;;;;;;7.70;60.72;99714.81;5079491;28;20082;-79
2024/03/26 02:18:58;;;;;;;0.13;0.13;;;;;;;7.67;60.63;99709.63;5080975;28;20088;-78
2024/03/26 02:21:25;;;;;;;0.20;0.20;;;;;;;7.64;61.18;99704.44;5086539;28;20033;-78
2024/03/26 02:23:55;;;;;;;0.10;0.10;;;;;;;7.62;61.41;99695.69;5084228;28;20039;-78
2024/03/26 02:26:24;;;;;;;0.10;0.10;;;;;;;7.58;61.25;99683.50;5081078;28;20029;-78
2024/03/26 02:28:55;;;;;;;0.10;0.10;;;;;;;7.59;61.59;99690.53;5082621;28;20035;-78
2024/03/26 02:31:32;;;;;;;0.10;0.10;;;;;;;7.53;61.56;99680.13;5083142;28;20036;-79
2024/03/26 02:34:04;;;;;;;0.10;0.10;;;;;;;7.50;61.27;99674.94;5085898;28;20037;-77
2024/03/26 02:36:32;;;;;;;0.43;0.40;;;;;;;7.49;61.58;99670.56;5090771;28;20094;-78
2024/03/26 02:39:00;;;;;;;0.10;0.10;;;;;;;7.46;61.59;99666.22;5092134;28;20024;-77
2024/03/26 02:41:27;;;;;;;0.20;0.20;;;;;;;7.42;61.46;99662.81;5091460;28;20078;-77
2024/03/26 02:43:54;;;;;;;0.10;0.10;;;;;;;7.40;61.34;99662.00;5090536;28;20028;-78
2024/03/26 02:46:23;;;;;;;0.10;0.10;;;;;;;7.38;61.74;99655.03;5088644;28;20042;-81
2024/03/26 02:48:50;;;;;;;0.20;0.20;;;;;;;7.35;62.13;99653.34;5090042;28;20032;-78
2024/03/26 02:51:19;;;;;;;0.45;0.45;;;;;;;7.33;62.12;99651.63;5089043;28;20028;-79
2024/03/26 02:53:55;;;;;;;0.10;0.10;;;;;;;7.31;61.54;99646.41;5083444;28;20040;-78
2024/03/26 02:56:29;;;;;;;0.10;0.10;;;;;;;7.29;61.94;99635.06;5093233;28;20054;-78
2024/03/26 02:58:56;;;;;;;0.15;0.15;;;;;;;7.27;61.79;99626.34;5094358;28;20111;-78
2024/03/26 03:01:23;;;;;;;0.10;0.10;;;;;;;7.26;61.82;99632.50;5093281;28;20025;-78
2024/03/26 03:03:49;;;;;;;0.10;0.10;;;;;;;7.23;62.53;99629.97;5090845;28;20028;-77
2024/03/26 03:06:16;;;;;;;0.10;0.10;;;;;;;7.26;62.16;99629.88;5093599;28;20075;-78
2024/03/26 03:08:43;;;;;;;0.10;0.10;;;;;;;7.27;62.05;99621.06;5091229;28;20028;-78
2024/03/26 03:11:10;;;;;;;0.10;0.10;;;;;;;7.26;62.06;99609.66;5088486;28;20036;-79
2024/03/26 03:13:37;;;;;;;0.10;0.10;;;;;;;7.27;62.09;99611.38;5080491;28;20028;-78
2024/03/26 03:16:09;;;;;;;0.15;0.15;;;;;;;7.29;62.29;99614.84;5077954;28;20029;-80
2024/03/26 03:18:37;;;;;;;0.10;0.10;;;;;;;7.31;61.66;99612.16;5080337;28;20032;-78
2024/03/26 03:21:05;;;;;;;0.10;0.10;;;;;;;7.36;62.10;99605.00;5078219;28;20028;-79
2024/03/26 03:23:32;;;;;;;0.10;0.10;;;;;;;7.40;61.61;99611.06;5078177;28;20036;-79
2024/03/26 03:26:09;;;;;;;0.15;0.15;;;;;;;7.46;61.92;99610.88;5079191;28;20025;-79
2024/03/26 03:28:38;;;;;;;0.10;0.10;;;;;;;7.46;62.14;99600.34;5081525;28;20119;-79
2024/03/26 03:31:06;;;;;;;0.30;0.30;;;;;;;7.49;62.04;99599.41;5078861;28;20060;-79
2024/03/26 03:33:35;;;;;;;0.10;0.10;;;;;;;7.52;61.44;99594.91;5076683;28;20032;-80
2024/03/26 03:36:04;;;;;;;0.25;0.25;;;;;;;7.54;62.21;99586.94;5091491;28;20028;-81
2024/03/26 03:38:32;;;;;;;0.10;0.10;;;;;;;7.55;61.60;99588.69;5093872;28;20051;-80
2024/03/26 03:41:01;;;;;;;0.10;0.10;;;;;;;7.55;61.69;99591.31;5094100;28;20054;-81
2024/03/26 03:43:30;;;;;;;0.10;0.10;;;;;;;7.58;61.78;99583.34;5083233;28;20024;-80
2024/03/26 03:46:02;;;;;;;0.05;0.05;;;;;;;7.62;62.07;99584.97;5084882;28;20479;-80
2024/03/26 03:48:29;;;;;;;0.20;0.20;;;;;;;7.63;61.44;99576.16;5078046;28;20032;-80
2024/03/26 03:50:57;;;;;;;0.10;0.10;;;;;;;7.67;61.43;99561.13;5078987;28;20032;-79
2024/03/26 03:53:24;;;;;;;0.10;0.10;;;;;;;7.66;61.87;99565.53;5085430;28;20408;-80
2024/03/26 03:55:51;;;;;;;0.10;0.10;;;;;;;7.66;61.69;99557.59;5083572;28;20029;-80
2024/03/26 03:58:19;;;;;;;0.20;0.20;;;;;;;7.67;61.92;99567.25;5081821;28;20505;-80
2024/03/26 04:00:47;;;;;;;0.10;0.10;;;;;;;7.67;61.17;99561.13;5077413;28;20111;-80
2024/03/26 04:03:14;;;;;;;0.10;0.10;;;;;;;7.67;61.67;99558.50;5086815;28;20476;-79
2024/03/26 04:05:42;;;;;;;0.10;0.10;;;;;;;7.66;61.36;99560.25;5083442;28;20488;-79
2024/03/26 04:08:12;;;;;;;0.10;0.10;;;;;;;7.62;61.73;99553.34;5080216;28;20503;-80
2024/03/26 04:10:44;;;;;;;0.10;0.10;;;;;;;7.61;61.39;99551.59;5088398;28;20052;-78
2024/03/26 04:13:10;;;;;;;0.10;0.10;;;;;;;7.59;61.22;99556.09;5084706;28;20036;-79
2024/03/26 04:15:41;;;;;;;0.10;0.10;;;;;;;7.58;61.07;99541.16;5075130;28;20563;-79
2024/03/26 04:18:09;;;;;;;0.10;0.10;;;;;;;7.56;61.49;99542.97;5078837;28;20090;-79
2024/03/26 04:20:40;;;;;;;0.20;0.20;;;;;;;7.52;60.99;99541.34;5073189;28;20035;-79
2024/03/26 04:23:09;;;;;;;0.20;0.20;;;;;;;7.51;61.73;99536.97;5073839;28;20496;-78
2024/03/26 04:25:38;;;;;;;0.10;0.10;;;;;;;7.47;61.18;99532.72;5077085;28;20070;-78
2024/03/26 04:28:07;;;;;;;0.10;0.10;;;;;;;7.41;61.44;99531.09;5079779;28;20032;-78
2024/03/26 04:30:35;;;;;;;0.90;0.90;;;;;;;7.36;61.63;99525.94;5076235;28;21233;-79
2024/03/26 04:33:04;;;;;;;0.10;0.10;;;;;;;7.32;61.74;99534.84;5073810;28;20029;-79
2024/03/26 04:35:38;;;;;;;0.10;0.10;;;;;;;7.23;61.44;99535.13;5073680;28;20055;-78
2024/03/26 04:38:06;;;;;;;0.03;0.03;;;;;;;7.19;61.83;99530.81;5072420;28;20082;-79
2024/03/26 04:40:33;;;;;;;0.10;0.10;;;;;;;7.13;61.83;99523.97;5072303;28;20033;-79
2024/03/26 04:43:09;;;;;;;0.17;0.17;;;;;;;7.09;61.80;99523.19;5072812;28;20488;-78
2024/03/26 04:45:42;;;;;;;0.10;0.10;;;;;;;7.04;62.23;99522.44;5072560;28;20027;-78
2024/03/26 04:48:12;;;;;;;0.10;0.10;;;;;;;6.97;62.04;99518.22;5072717;28;20039;-78
2024/03/26 04:50:41;;;;;;;1.25;1.25;;;;;;;6.92;61.68;99514.88;5072625;28;20040;-78
2024/03/26 04:53:10;;;;;;;0.10;0.10;;;;;;;6.86;61.76;99520.28;5073040;28;20033;-78
2024/03/26 04:55:36;;;;;;;0.10;0.10;;;;;;;6.79;62.15;99509.91;5067698;28;20040;-78
2024/03/26 04:58:05;;;;;;;0.10;0.10;;;;;;;6.76;62.21;99506.50;5073455;28;20033;-78
2024/03/26 05:00:32;;;;;;;0.10;0.10;;;;;;;6.71;62.57;99511.03;5073892;28;20024;-79
2024/03/26 05:03:01;;;;;;;0.10;0.10;;;;;;;6.67;62.62;99507.59;5078515;28;20032;-79
2024/03/26 05:05:29;;;;;;;0.10;0.10;;;;;;;6.62;62.63;99518.22;5081928;28;20074;-79
2024/03/26 05:07:58;;;;;;;0.10;0.10;;;;;;;6.58;62.58;99515.72;5081540;28;20044;-79
2024/03/26 05:10:27;;;;;;;0.10;0.10;;;;;;;6.52;62.43;99516.75;5081331;28;20053;-80
2024/03/26 05:12:53;;;;;;;0.10;0.10;;;;;;;6.48;62.48;99521.22;5079345;28;20060;-78
2024/03/26 05:15:30;;;;;;;0.10;0.10;;;;;;;6.45;62.54;99513.38;5083839;28;20112;-80
2024/03/26 05:18:01;;;;;;;0.13;0.13;;;;;;;6.43;62.90;99514.31;5082647;28;20028;-78
2024/03/26 05:20:30;;;;;;;0.10;0.10;;;;;;;6.39;62.95;99510.94;5081457;28;20451;-80
2024/03/26 05:23:00;;;;;;;0.10;0.10;;;;;;;6.34;63.39;99514.56;5083053;28;20113;-80
2024/03/26 05:25:28;;;;;;;0.10;0.10;;;;;;;6.29;62.92;99507.66;5077378;28;20391;-78
2024/03/26 05:27:58;;;;;;;0.10;0.10;;;;;;;6.28;63.29;99510.28;5079913;28;20111;-79
2024/03/26 05:30:24;;;;;;;0.20;0.20;;;;;;;6.24;63.19;99508.66;5079931;28;20047;-79
2024/03/26 05:32:52;;;;;;;0.10;0.10;;;;;;;6.23;63.65;99507.78;5086634;28;20114;-78
2024/03/26 05:35:20;;;;;;;0.10;0.10;;;;;;;6.20;63.43;99502.59;5084824;28;20035;-80
2024/03/26 05:37:49;;;;;;;0.10;0.10;;;;;;;6.16;63.39;99500.94;5076820;28;20035;-79
2024/03/26 05:40:19;;;;;;;0.10;0.10;;;;;;;6.14;63.63;99506.25;5079219;28;20032;-79
2024/03/26 05:42:45;;;;;;;0.10;0.10;;;;;;;6.13;63.38;99507.13;5097646;28;20083;-79
2024/03/26 05:45:12;;;;;;;0.10;0.10;;;;;;;6.08;63.75;99508.13;5085355;28;20040;-79
2024/03/26 05:47:39;;;;;;;0.10;0.10;;;;;;;6.07;63.29;99496.75;5085244;28;20550;-78
2024/03/26 05:50:06;;;;;;;0.28;0.28;;;;;;;6.07;63.42;99499.41;5081040;28;20089;-78
2024/03/26 05:52:34;;;;;;;0.10;0.10;;;;;;;6.07;63.59;99494.13;5075419;28;20047;-79
2024/03/26 05:55:01;;;;;;;0.10;0.10;;;;;;;6.08;63.71;99492.34;5075598;28;20036;-78
2024/03/26 05:57:29;;;;;;;0.10;0.10;;;;;;;6.09;63.85;99489.72;5076012;28;20085;-78
2024/03/26 06:00:01;;;;;;;1.15;0.50;;;;;;;6.12;64.07;99497.53;5075852;28;20123;-78
2024/03/26 06:02:27;;;;;;;0.13;0.13;;;;;;;6.11;64.05;99500.19;5077170;28;20051;-77
2024/03/26 06:04:56;;;;;;;0.30;0.30;;;;;;;6.11;64.02;99494.94;5075326;28;20048;-78
2024/03/26 06:07:22;;;;;;;0.10;0.10;;;;;;;6.14;64.04;99490.47;5077478;28;20029;-79
2024/03/26 06:09:53;;;;;;;0.10;0.10;;;;;;;6.21;64.00;99492.94;5075743;28;20042;-79
2024/03/26 06:12:21;;;;;;;0.10;0.10;;;;;;;6.24;63.92;99490.22;5078215;28;20028;-78
2024/03/26 06:14:50;;;;;;;0.10;0.10;;;;;;;6.26;64.09;99489.28;5076465;28;20032;-78
2024/03/26 06:17:22;;;;;;;0.10;0.10;;;;;;;6.30;63.83;99485.69;5079826;28;20040;-80
2024/03/26 06:19:51;;;;;;;0.10;0.10;;;;;;;6.36;64.20;99492.56;5082515;28;20082;-78
2024/03/26 06:22:20;;;;;;;0.13;0.13;;;;;;;6.41;64.34;99485.41;5086918;28;20101;-78
2024/03/26 06:24:50;;;;;;;0.10;0.10;;;;;;;6.50;64.32;99480.84;5074923;28;20036;-78
2024/03/26 06:27:17;;;;;;;0.10;0.10;;;;;;;6.52;64.77;99485.16;5079835;28;20420;-77
2024/03/26 06:29:45;;;;;;;0.20;0.20;;;;;;;6.58;64.46;99485.00;5081707;28;20044;-78
2024/03/26 06:32:15;;;;;;;0.10;0.10;;;;;;;6.66;64.67;99482.19;5076862;28;20025;-79
2024/03/26 06:34:45;;;;;;;0.10;0.10;;;;;;;6.71;65.15;99475.03;5076732;28;20568;-78
2024/03/26 06:37:13;;;;;;;1.15;1.08;;;;;;;6.79;64.49;99469.53;5080570;28;20036;-78
2024/03/26 06:39:42;;;;;;;0.10;0.10;;;;;;;6.87;64.51;99464.94;5082425;28;20585;-77
2024/03/26 06:42:15;;;;;;;0.10;0.10;;;;;;;6.91;64.69;99463.09;5078058;28;20037;-78
2024/03/26 06:44:44;;;;;;;0.20;0.20;;;;;;;7.02;64.51;99458.41;5079684;28;20078;-77
2024/03/26 06:47:18;;;;;;;0.10;0.10;;;;;;;7.13;64.74;99458.97;5077563;28;20037;-78
2024/03/26 06:49:47;;;;;;;0.10;0.10;;;;;;;7.23;64.19;99456.09;5075675;28;20035;-78
2024/03/26 06:52:13;;;;;;;0.10;0.10;;;;;;;7.28;63.99;99451.53;5081348;28;20033;-78
2024/03/26 06:54:43;;;;;;;0.10;0.10;;;;;;;7.36;63.58;99449.53;5081765;28;20446;-78
2024/03/26 06:57:18;;;;;;;0.10;0.10;;;;;;;7.47;62.98;99443.94;5077180;28;20037;-77
2024/03/26 06:59:49;;;;;;;0.10;0.10;;;;;;;7.55;63.41;99446.34;5072164;28;20189;-77
2024/03/26 07:02:17;;;;;;;0.10;0.10;;;;;;;7.66;63.27;99438.97;5080275;28;20452;-79
2024/03/26 07:04:44;;;;;;;2.88;2.42;;;;;;;7.73;62.59;99427.34;5083032;28;20507;-80
2024/03/26 07:13:29;;;;;;;0.10;0.10;;;;;;;8.04;61.43;99420.25;5069873;28;20094;-77
2024/03/26 07:15:55;;;;;;;0.20;0.20;;;;;;;8.03;61.31;99415.88;5077770;28;20039;-78
2024/03/26 07:18:25;;;;;;;0.10;0.10;;;;;;;8.13;60.82;99424.34;5077115;28;20139;-80
2024/03/26 07:20:53;;;;;;;0.13;0.13;;;;;;;8.16;60.57;99405.78;5077707;28;20499;-79
2024/03/26 07:23:23;;;;;;;0.10;0.10;;;;;;;8.28;60.57;99410.66;5077588;28;20503;-78
2024/03/26 07:25:50;;;;;;;0.10;0.10;;;;;;;8.34;60.35;99413.06;5077676;28;20500;-78
2024/03/26 07:28:19;;;;;;;0.10;0.10;;;;;;;8.42;59.81;99408.41;5076438;28;20139;-77
2024/03/26 07:30:47;;;;;;;0.13;0.13;;;;;;;8.49;59.43;99402.97;5076629;28;20050;-79
2024/03/26 07:33:16;;;;;;;0.10;0.10;;;;;;;8.48;58.85;99399.44;5077731;28;20024;-79
2024/03/26 07:35:44;;;;;;;0.30;0.30;;;;;;;8.58;59.41;99397.34;5078710;28;20734;-78
2024/03/26 07:38:14;;;;;;;0.10;0.10;;;;;;;8.64;59.08;99399.78;5077754;28;20063;-78
2024/03/26 07:40:45;;;;;;;0.10;0.10;;;;;;;8.67;58.61;99390.88;5080137;28;20103;-78
2024/03/26 07:43:13;;;;;;;0.25;0.25;;;;;;;8.66;58.86;99389.16;5083690;28;20058;-78
2024/03/26 07:45:42;;;;;;;0.10;0.10;;;;;;;8.78;59.23;99387.84;5078289;28;20115;-79
2024/03/26 07:48:08;;;;;;;0.10;0.10;;;;;;;8.71;59.05;99385.44;5077862;28;20521;-78
2024/03/26 07:50:36;;;;;;;0.10;0.10;;;;;;;8.85;58.50;99384.09;5077631;28;20043;-80
2024/03/26 07:53:02;;;;;;;0.10;0.10;;;;;;;8.88;58.48;99391.88;5070008;28;20103;-79
2024/03/26 07:55:29;;;;;;;0.10;0.10;;;;;;;8.86;58.39;99385.78;5076848;28;20036;-79
2024/03/26 07:57:59;;;;;;;0.10;0.10;;;;;;;8.87;57.84;99383.09;5077775;28;20060;-80
2024/03/26 08:00:28;;;;;;;0.10;0.10;;;;;;;8.96;58.08;99381.03;5070892;28;20385;-80
2024/03/26 08:02:56;;;;;;;0.35;0.35;;;;;;;9.01;58.00;99374.66;5077583;28;20021;-79
2024/03/26 08:05:25;;;;;;;0.13;0.13;;;;;;;9.10;57.80;99377.88;5077594;28;20032;-79
2024/03/26 08:07:53;;;;;;;0.10;0.10;;;;;;;9.16;57.92;99361.78;5077091;28;20468;-79
2024/03/26 08:10:24;;;;;;;0.10;0.10;;;;;;;9.21;57.35;99365.13;5078485;28;20582;-81
2024/03/26 08:12:52;;;;;;;0.20;0.20;;;;;;;9.20;57.88;99363.41;5077708;28;20028;-80
2024/03/26 08:15:20;;;;;;;0.10;0.10;;;;;;;9.28;57.51;99358.69;5080265;28;20104;-79
2024/03/26 08:17:49;;;;;;;0.10;0.10;;;;;;;9.35;57.43;99357.53;5078399;28;20035;-79
2024/03/26 08:20:16;;;;;;;0.10;0.10;;;;;;;9.42;57.16;99357.28;5090147;28;20029;-78
2024/03/26 08:22:44;;;;;;;0.10;0.10;;;;;;;9.49;57.23;99364.06;5089182;28;20036;-79
2024/03/26 08:25:11;;;;;;;0.10;0.10;;;;;;;9.56;57.24;99360.25;5089032;28;20056;-78
2024/03/26 08:27:39;;;;;;;0.10;0.10;;;;;;;9.60;56.51;99355.72;5087307;28;20523;-78
2024/03/26 08:30:10;;;;;;;0.10;0.10;;;;;;;9.61;57.14;99352.13;5082917;28;20025;-78
2024/03/26 08:32:38;;;;;;;0.10;0.10;;;;;;;9.76;56.45;99355.94;5086835;28;20484;-78
2024/03/26 08:35:08;;;;;;;30.98;1.50;;;;;;;9.80;56.74;99352.25;5085862;28;20062;-77
2024/03/26 08:37:36;;;;;;;0.10;0.10;;;;;;;9.92;56.38;99354.41;5087879;28;20040;-77
2024/03/26 08:40:03;;;;;;;0.10;0.10;;;;;;;9.97;56.07;99348.91;5086439;28;20032;-79
2024/03/26 08:42:33;;;;;;;0.10;0.10;;;;;;;10.12;55.13;99345.63;5087226;28;20032;-78
2024/03/26 08:45:00;;;;;;;0.10;0.10;;;;;;;10.18;55.63;99347.13;5079497;28;20039;-79
2024/03/26 08:47:26;;;;;;;0.10;0.10;;;;;;;10.22;54.11;99339.94;5078868;28;20555;-79
2024/03/26 08:49:56;;;;;;;0.65;0.65;;;;;;;10.38;54.40;99335.75;5082537;28;20032;-78
2024/03/26 08:52:24;;;;;;;0.20;0.20;;;;;;;10.45;53.89;99336.34;5082497;28;20510;-79
2024/03/26 08:54:52;;;;;;;0.30;0.30;;;;;;;10.58;54.15;99334.88;5082697;28;20041;-80
2024/03/26 08:57:20;;;;;;;0.10;0.10;;;;;;;10.73;54.34;99328.03;5082425;28;20060;-77
2024/03/26 08:59:47;;;;;;;0.10;0.10;;;;;;;10.86;53.99;99343.38;5083518;28;20040;-78
2024/03/26 09:02:15;;;;;;;0.70;0.70;;;;;;;10.93;53.91;99342.13;5088852;28;20032;-77
2024/03/26 09:04:42;;;;;;;0.10;0.10;;;;;;;11.00;53.01;99339.16;5086787;28;20139;-80
2024/03/26 09:07:09;;;;;;;0.10;0.10;;;;;;;11.10;53.61;99328.13;5088585;28;20024;-78
2024/03/26 09:09:36;;;;;;;0.10;0.10;;;;;;;11.14;52.98;99308.47;5086822;28;20028;-78
2024/03/26 09:12:05;;;;;;;0.10;0.10;;;;;;;11.14;52.78;99312.00;5084598;28;20036;-78
2024/03/26 09:14:31;;;;;;;0.15;0.15;;;;;;;11.20;52.39;99315.31;5083873;28;20119;-78
2024/03/26 09:16:57;;;;;;;0.10;0.10;;;;;;;11.30;52.44;99306.84;5083576;28;20036;-79
2024/03/26 09:19:26;;;;;;;0.10;0.10;;;;;;;11.37;52.94;99306.56;5085698;28;20553;-80
2024/03/26 09:21:55;;;;;;;0.10;0.10;;;;;;;11.47;53.18;99303.38;5084116;28;20029;-79
2024/03/26 09:24:25;;;;;;;0.10;0.10;;;;;;;11.53;52.60;99302.22;5085562;28;20029;-79
2024/03/26 09:26:54;;;;;;;0.10;0.10;;;;;;;11.53;51.81;99299.56;5088584;28;20029;-78
2024/03/26 09:29:21;;;;;;;0.10;0.10;;;;;;;11.51;52.70;99296.13;5090026;28;20032;-79
2024/03/26 09:31:48;;;;;;;0.10;0.10;;;;;;;11.61;52.00;99292.09;5088107;28;20102;-79
2024/03/26 09:34:17;;;;;;;0.10;0.10;;;;;;;11.72;52.93;99294.22;5083545;28;20115;-79
2024/03/26 09:36:44;;;;;;;0.10;0.10;;;;;;;11.75;51.90;99288.75;5084260;28;20043;-79
2024/03/26 09:39:13;;;;;;;0.10;0.10;;;;;;;11.77;52.17;99289.53;5083189;28;20032;-79
2024/03/26 09:41:42;;;;;;;0.10;0.10;;;;;;;11.81;51.21;99284.94;5080182;28;20028;-80
2024/03/26 09:44:10;;;;;;;0.75;0.75;;;;;;;11.88;51.88;99286.34;5079850;28;20028;-79
2024/03/26 09:46:40;;;;;;;0.10;0.10;;;;;;;11.99;52.01;99283.19;5079063;28;20024;-79
2024/03/26 09:49:12;;;;;;;0.15;0.15;;;;;;;12.05;51.39;99282.00;5080017;28;20032;-81
2024/03/26 09:51:46;;;;;;;0.10;0.10;;;;;;;12.18;52.42;99276.94;5078787;28;20055;-80
2024/03/26 09:54:16;;;;;;;0.10;0.10;;;;;;;12.24;51.87;99272.16;5081111;28;20491;-80
2024/03/26 09:56:43;;;;;;;0.10;0.10;;;;;;;12.39;52.15;99267.00;5079861;28;20025;-81
2024/03/26 09:59:11;;;;;;;0.10;0.10;;;;;;;12.53;52.07;99267.09;5079114;28;20036;-80
2024/03/26 10:01:40;;;;;;;0.10;0.10;;;;;;;12.57;51.93;99265.13;5078464;28;20092;-81
2024/03/26 10:04:09;;;;;;;0.10;0.10;;;;;;;12.58;50.00;99253.56;5078526;28;20036;-80
2024/03/26 10:06:38;;;;;;;0.10;0.10;;;;;;;12.60;50.88;99252.56;5079984;28;20034;-79
2024/03/26 10:09:06;;;;;;;0.10;0.10;;;;;;;12.66;51.28;99253.16;5078218;28;20032;-80
2024/03/26 10:11:36;;;;;;;0.20;0.20;;;;;;;12.69;51.09;99250.34;5077657;28;20028;-80
2024/03/26 10:14:04;;;;;;;0.10;0.10;;;;;;;12.71;50.99;99248.44;5077888;28;20047;-80
2024/03/26 10:16:31;;;;;;;0.25;0.25;;;;;;;12.74;50.02;99250.94;5079847;28;20033;-80
2024/03/26 10:18:59;;;;;;;0.20;0.20;;;;;;;12.75;50.17;99248.19;5084505;28;20028;-79
2024/03/26 10:21:27;;;;;;;0.10;0.10;;;;;;;12.70;49.18;99247.59;5079600;28;20029;-79
2024/03/26 10:23:55;;;;;;;0.10;0.10;;;;;;;12.80;49.74;99242.63;5078242;28;20044;-79
2024/03/26 10:26:24;;;;;;;0.15;0.15;;;;;;;12.89;50.63;99236.81;5077861;28;20100;-81
2024/03/26 10:28:52;;;;;;;0.10;0.10;;;;;;;12.95;49.78;99236.47;5079350;28;20039;-80
2024/03/26 10:31:22;;;;;;;0.10;0.10;;;;;;;13.04;50.12;99232.44;5077821;28;20040;-80
2024/03/26 10:33:52;;;;;;;0.10;0.10;;;;;;;13.15;49.93;99234.50;5071749;28;20035;-81
2024/03/26 10:36:20;;;;;;;0.10;0.10;;;;;;;13.26;50.55;99218.78;5076539;28;20025;-79
2024/03/26 10:38:51;;;;;;;0.10;0.10;;;;;;;13.31;49.66;99217.66;5073477;28;20458;-78
2024/03/26 10:41:24;;;;;;;0.10;0.10;;;;;;;13.31;49.60;99217.66;5073934;28;20032;-78
2024/03/26 10:43:53;;;;;;;0.30;0.30;;;;;;;13.30;49.01;99207.97;5074366;28;20032;-79
2024/03/26 10:46:21;;;;;;;1.35;1.25;;;;;;;13.34;48.89;99209.50;5074400;28;20048;-78
2024/03/26 10:48:48;;;;;;;0.10;0.10;;;;;;;13.33;48.80;99208.63;5066248;28;20119;-79
2024/03/26 10:51:15;;;;;;;0.10;0.10;;;;;;;13.39;49.09;99218.97;5073715;28;20025;-78
2024/03/26 10:53:42;;;;;;;0.17;0.17;;;;;;;13.34;48.96;99212.19;5074715;28;20496;-79
2024/03/26 10:56:12;;;;;;;0.22;0.22;;;;;;;13.35;49.20;99203.25;5073805;28;20111;-78
2024/03/26 10:58:40;;;;;;;0.28;0.28;;;;;;;13.40;49.68;99214.50;5072433;28;20537;-78
2024/03/26 11:01:08;;;;;;;0.10;0.10;;;;;;;13.45;49.39;99200.94;5073349;28;20024;-79
2024/03/26 11:03:35;;;;;;;0.10;0.10;;;;;;;13.45;49.32;99207.13;5073435;28;20587;-79
2024/03/26 11:06:02;;;;;;;0.10;0.10;;;;;;;13.53;49.38;99199.56;5074479;28;20020;-81
2024/03/26 11:08:40;;;;;;;0.90;0.90;;;;;;;13.54;49.94;99197.75;5078682;28;20594;-83
2024/03/26 11:11:15;;;;;;;0.10;0.10;;;;;;;13.57;49.01;99195.75;5078772;28;20028;-82
2024/03/26 11:13:44;;;;;;;0.10;0.10;;;;;;;13.66;48.69;99188.19;5077927;28;20067;-78
2024/03/26 11:19:28;;;;;;;0.10;0.10;;;;;;;13.73;48.54;99185.06;5031386;28;20681;-79
2024/03/26 11:21:55;;;;;;;1.98;0.95;;;;;;;13.74;48.85;99183.25;5032179;28;20029;-79
2024/03/26 11:24:34;;;;;;;1.08;1.08;;;;;;;13.82;48.85;99183.66;5030661;28;20062;-78
2024/03/26 11:27:02;;;;;;;0.13;0.13;;;;;;;13.82;48.63;99183.66;5029606;28;20356;-80
2024/03/26 11:29:31;;;;;;;0.10;0.10;;;;;;;13.85;48.58;99183.47;5028262;28;20025;-79
2024/03/26 11:32:02;;;;;;;0.10;0.10;;;;;;;13.91;47.76;99183.09;5025435;28;20025;-79
2024/03/26 11:34:31;;;;;;;0.10;0.10;;;;;;;13.82;47.83;99175.66;5032599;28;20052;-79
2024/03/26 11:36:59;;;;;;;0.10;0.10;;;;;;;13.85;48.10;99171.97;5030327;28;20183;-81
2024/03/26 11:39:26;;;;;;;0.10;0.10;;;;;;;13.85;48.11;99172.81;5030229;28;20238;-79
2024/03/26 11:41:54;;;;;;;0.10;0.10;;;;;;;13.83;47.86;99164.06;5028431;28;20025;-79
2024/03/26 11:44:20;;;;;;;0.10;0.10;;;;;;;13.91;48.24;99167.13;5029533;28;20094;-80
2024/03/26 11:46:47;;;;;;;0.65;0.65;;;;;;;13.98;48.65;99166.75;5028216;28;20175;-80
2024/03/26 11:49:13;;;;;;;0.10;0.10;;;;;;;13.96;48.37;99172.16;5030680;28;20036;-81
2024/03/26 11:51:40;;;;;;;0.05;0.05;;;;;;;13.84;48.08;99164.91;5028730;28;20068;-80
2024/03/26 11:54:08;;;;;;;0.10;0.10;;;;;;;13.88;48.15;99161.13;5029761;28;20421;-80
2024/03/26 11:56:34;;;;;;;0.20;0.20;;;;;;;13.95;47.76;99158.94;5010804;28;20140;-79
2024/03/26 11:59:02;;;;;;;0.10;0.10;;;;;;;14.02;48.27;99149.66;5010864;28;20026;-80